Time;durP1;ratioP1;P1;durP2;ratioP2;P2;SDS_P1;SDS_P2;PMS_P1;PMS_P2;Temp;Humidity;BMP_temperature;BMP_pressure;BME280_temperature;BME280_humidity;BME280_pressure;Samples;Min_cycle;Max_cycle;Signal;HPM_P1;HPM_P2
2022/02/22 00:00:28;;;;;;;3.28;1.50;;;4.90;99.90;;;;;;5031752;28;20048;-70
2022/02/22 00:03:36;;;;;;;1.73;0.88;;;5.00;99.90;;;;;;5031827;28;20048;-71
2022/02/22 00:06:40;;;;;;;4.93;0.90;;;5.00;99.90;;;;;;5031628;28;20046;-70
2022/02/22 00:09:43;;;;;;;3.22;1.20;;;5.10;99.90;;;;;;5030712;28;20365;-70
2022/02/22 00:12:47;;;;;;;1.77;1.17;;;5.00;99.90;;;;;;5031010;28;20029;-70
2022/02/22 00:15:52;;;;;;;2.55;1.23;;;4.90;99.90;;;;;;5031047;28;20044;-70
2022/02/22 00:18:56;;;;;;;3.30;1.40;;;4.90;99.90;;;;;;5030758;28;20045;-70
2022/02/22 00:22:00;;;;;;;3.00;0.98;;;4.90;99.90;;;;;;5031122;28;20052;-70
2022/02/22 00:25:06;;;;;;;1.63;0.90;;;4.80;99.90;;;;;;5031202;28;20037;-70
2022/02/22 00:28:13;;;;;;;2.67;1.35;;;4.80;99.90;;;;;;5030561;28;20110;-70
2022/02/22 00:31:17;;;;;;;1.85;1.10;;;4.80;99.90;;;;;;5031241;28;20056;-70
2022/02/22 00:34:21;;;;;;;1.25;0.93;;;4.70;99.90;;;;;;5030729;28;20038;-71
2022/02/22 00:37:25;;;;;;;1.65;0.70;;;4.60;99.90;;;;;;5030848;28;20404;-70
2022/02/22 00:40:29;;;;;;;2.47;0.60;;;4.70;99.90;;;;;;5028551;28;20599;-70
2022/02/22 00:43:33;;;;;;;1.38;0.70;;;4.90;99.90;;;;;;5030242;28;20384;-70
2022/02/22 00:46:38;;;;;;;1.65;0.50;;;5.00;99.90;;;;;;5030619;28;20045;-70
2022/02/22 00:49:42;;;;;;;3.28;0.80;;;5.10;99.90;;;;;;5030555;28;20339;-70
2022/02/22 00:52:46;;;;;;;0.60;0.60;;;5.10;99.90;;;;;;5030660;28;20050;-71
2022/02/22 00:55:50;;;;;;;2.38;0.40;;;5.30;99.90;;;;;;5029531;28;20050;-71
2022/02/22 00:58:54;;;;;;;0.65;0.50;;;5.30;99.90;;;;;;5029279;28;20042;-70
2022/02/22 01:01:57;;;;;;;0.63;0.50;;;5.40;99.90;;;;;;5030415;28;20049;-71
2022/02/22 01:05:02;;;;;;;0.57;0.43;;;5.50;99.90;;;;;;5030577;28;20487;-70
2022/02/22 01:08:07;;;;;;;6.70;0.60;;;5.60;99.90;;;;;;5030072;28;20048;-70
2022/02/22 01:11:11;;;;;;;0.50;0.40;;;5.60;99.90;;;;;;5029962;28;20055;-71
2022/02/22 01:14:15;;;;;;;0.60;0.50;;;5.70;99.90;;;;;;5030199;28;20033;-70
2022/02/22 01:17:19;;;;;;;1.00;0.65;;;5.70;99.90;;;;;;5030144;28;20048;-70
2022/02/22 01:20:23;;;;;;;1.98;0.80;;;5.70;99.90;;;;;;5030007;28;20049;-70
2022/02/22 01:23:27;;;;;;;1.05;0.40;;;5.60;99.90;;;;;;5029091;28;20499;-70
2022/02/22 01:26:32;;;;;;;1.02;0.52;;;5.50;99.90;;;;;;5029988;28;20026;-71
2022/02/22 01:29:36;;;;;;;0.85;0.40;;;5.70;99.90;;;;;;5029912;28;20517;-70
2022/02/22 01:32:41;;;;;;;0.75;0.50;;;5.80;99.90;;;;;;5029713;28;20053;-71
2022/02/22 01:35:45;;;;;;;0.90;0.40;;;5.90;99.90;;;;;;5030125;28;20048;-70
2022/02/22 01:38:51;;;;;;;1.38;0.40;;;6.00;99.90;;;;;;5029247;28;20513;-70
2022/02/22 01:41:55;;;;;;;0.40;0.40;;;6.30;99.90;;;;;;5029078;28;20037;-69
2022/02/22 01:44:59;;;;;;;1.10;0.60;;;6.50;99.90;;;;;;5029984;28;20061;-71
2022/02/22 01:48:03;;;;;;;2.10;0.45;;;6.70;99.90;;;;;;5029315;28;20049;-71
2022/02/22 01:51:07;;;;;;;0.30;0.30;;;6.70;99.90;;;;;;5030043;28;20049;-72
2022/02/22 01:54:12;;;;;;;1.48;0.45;;;6.80;99.90;;;;;;5029938;28;20392;-70
2022/02/22 01:57:17;;;;;;;1.15;0.40;;;6.70;99.90;;;;;;5029813;28;20503;-71
2022/02/22 02:00:21;;;;;;;0.95;0.47;;;6.80;99.90;;;;;;5028943;28;20045;-70
2022/02/22 02:03:26;;;;;;;0.30;0.30;;;6.70;99.90;;;;;;5029641;28;20033;-71
2022/02/22 02:06:30;;;;;;;0.50;0.40;;;6.70;99.90;;;;;;5029804;28;20036;-71
2022/02/22 02:09:34;;;;;;;0.47;0.30;;;6.70;99.90;;;;;;5029384;28;20054;-70
2022/02/22 02:12:39;;;;;;;0.73;0.40;;;6.70;99.90;;;;;;5029780;28;20037;-71
2022/02/22 02:15:43;;;;;;;0.55;0.40;;;6.60;99.90;;;;;;5029898;28;20507;-71
2022/02/22 02:18:48;;;;;;;0.30;0.30;;;6.60;99.90;;;;;;5028922;28;20048;-71
2022/02/22 02:21:59;;;;;;;2.50;0.40;;;6.60;99.90;;;;;;5029846;28;20416;-70
2022/02/22 02:25:05;;;;;;;0.32;0.30;;;6.60;99.90;;;;;;5028859;28;20029;-71
2022/02/22 02:28:09;;;;;;;0.45;0.40;;;6.60;99.90;;;;;;5028592;28;20022;-71
2022/02/22 02:31:13;;;;;;;0.93;0.40;;;6.50;99.90;;;;;;5029791;28;20519;-71
2022/02/22 02:34:20;;;;;;;0.38;0.38;;;6.40;99.90;;;;;;5029610;28;20049;-71
2022/02/22 02:37:24;;;;;;;0.47;0.35;;;6.50;99.90;;;;;;5033152;28;20044;-71
2022/02/22 02:40:28;;;;;;;0.30;0.30;;;6.50;99.90;;;;;;5032070;28;20053;-71
2022/02/22 02:43:32;;;;;;;2.45;0.30;;;6.40;99.90;;;;;;5032804;28;20033;-71
2022/02/22 02:46:37;;;;;;;0.25;0.25;;;6.50;99.90;;;;;;5031907;28;20037;-70
2022/02/22 02:49:43;;;;;;;0.68;0.32;;;6.50;99.90;;;;;;5020085;28;20056;-71
2022/02/22 02:52:48;;;;;;;0.40;0.28;;;6.50;99.90;;;;;;5033034;28;20392;-70
2022/02/22 02:55:51;;;;;;;0.30;0.30;;;6.50;99.90;;;;;;5032925;28;20503;-71
2022/02/22 02:59:01;;;;;;;0.75;0.30;;;6.60;99.90;;;;;;5032010;28;20040;-70
2022/02/22 03:02:05;;;;;;;0.40;0.30;;;6.60;99.90;;;;;;5032786;28;20037;-71
2022/02/22 03:05:09;;;;;;;0.28;0.20;;;6.60;99.90;;;;;;5032647;28;20038;-70
2022/02/22 03:08:12;;;;;;;0.98;0.30;;;6.50;99.90;;;;;;5032139;28;20029;-70
2022/02/22 03:11:16;;;;;;;0.50;0.30;;;6.60;99.90;;;;;;5032712;28;20045;-70
2022/02/22 03:14:20;;;;;;;1.02;0.43;;;6.50;99.90;;;;;;5032688;28;20042;-70
2022/02/22 03:17:24;;;;;;;1.48;0.47;;;6.50;99.90;;;;;;5032515;28;20029;-70
2022/02/22 03:20:28;;;;;;;0.57;0.50;;;6.40;99.90;;;;;;5031274;28;20065;-71
2022/02/22 03:23:32;;;;;;;1.55;0.40;;;6.40;99.90;;;;;;5032448;28;20056;-70
2022/02/22 03:26:37;;;;;;;2.42;0.50;;;6.40;99.90;;;;;;5032273;28;20043;-71
2022/02/22 03:29:40;;;;;;;0.50;0.40;;;6.30;99.90;;;;;;5031809;28;20053;-70
2022/02/22 03:32:45;;;;;;;0.68;0.40;;;6.30;99.90;;;;;;5032476;28;20045;-70
2022/02/22 03:35:50;;;;;;;0.30;0.30;;;6.10;99.90;;;;;;5032084;28;20041;-70
2022/02/22 03:38:54;;;;;;;1.20;0.30;;;6.00;99.90;;;;;;5031411;28;20057;-71
2022/02/22 03:41:59;;;;;;;0.73;0.40;;;6.00;99.90;;;;;;5030606;28;20061;-70
2022/02/22 03:45:04;;;;;;;0.32;0.30;;;5.90;99.90;;;;;;5031887;28;20041;-70
2022/02/22 03:48:08;;;;;;;1.30;0.85;;;5.80;99.90;;;;;;5031453;28;20032;-70
2022/02/22 03:51:12;;;;;;;0.63;0.43;;;5.80;99.90;;;;;;5031798;28;20049;-70
2022/02/22 03:54:16;;;;;;;0.25;0.25;;;5.70;99.90;;;;;;5031990;28;20420;-70
2022/02/22 03:57:20;;;;;;;0.88;0.40;;;5.70;99.90;;;;;;5031879;28;20046;-70
2022/02/22 04:00:25;;;;;;;0.30;0.30;;;5.50;99.90;;;;;;5031235;28;20049;-70
2022/02/22 04:03:29;;;;;;;0.30;0.30;;;5.50;99.90;;;;;;5032017;28;20030;-70
2022/02/22 04:06:33;;;;;;;0.30;0.30;;;5.40;99.90;;;;;;5031642;28;20297;-71
2022/02/22 04:09:37;;;;;;;1.38;0.32;;;5.40;99.90;;;;;;5030986;28;20354;-70
2022/02/22 04:12:42;;;;;;;0.40;0.40;;;5.30;99.90;;;;;;5031535;28;20073;-71
2022/02/22 04:15:46;;;;;;;0.70;0.40;;;5.20;99.90;;;;;;5031296;28;20436;-70
2022/02/22 04:18:50;;;;;;;0.50;0.40;;;5.20;99.90;;;;;;5030532;28;20046;-70
2022/02/22 04:21:54;;;;;;;0.30;0.30;;;5.10;99.90;;;;;;5031692;28;20044;-70
2022/02/22 04:24:58;;;;;;;1.13;0.40;;;5.00;99.90;;;;;;5031434;28;20052;-70
2022/02/22 04:28:02;;;;;;;1.17;1.08;;;5.00;99.90;;;;;;5031138;28;20041;-70
2022/02/22 04:31:05;;;;;;;1.23;0.60;;;4.90;99.90;;;;;;5031333;28;20495;-70
2022/02/22 04:34:09;;;;;;;0.73;0.40;;;4.80;99.90;;;;;;5031066;28;20060;-70
2022/02/22 04:37:15;;;;;;;0.40;0.40;;;4.80;99.90;;;;;;5031185;28;20045;-70
2022/02/22 04:40:19;;;;;;;0.82;0.50;;;4.70;99.90;;;;;;5029217;28;20056;-70
2022/02/22 04:43:23;;;;;;;0.70;0.40;;;4.70;99.90;;;;;;5030822;28;20396;-70
2022/02/22 04:46:27;;;;;;;1.25;0.60;;;4.60;99.90;;;;;;5030866;28;20033;-71
2022/02/22 04:49:31;;;;;;;1.70;0.50;;;4.50;99.90;;;;;;5029257;28;20041;-70
2022/02/22 04:52:36;;;;;;;1.08;0.52;;;4.40;99.90;;;;;;5030620;28;20404;-70
2022/02/22 04:55:39;;;;;;;0.57;0.43;;;4.30;99.90;;;;;;5030767;28;20050;-71
2022/02/22 04:58:43;;;;;;;0.55;0.50;;;4.30;99.90;;;;;;5029366;28;20037;-70
2022/02/22 05:01:47;;;;;;;0.63;0.50;;;4.30;99.90;;;;;;5030715;28;20045;-70
2022/02/22 05:04:51;;;;;;;1.00;0.90;;;4.20;99.90;;;;;;5030373;28;20048;-70
2022/02/22 05:07:56;;;;;;;0.60;0.60;;;4.20;99.90;;;;;;5030391;28;20031;-70
2022/02/22 05:11:00;;;;;;;0.82;0.60;;;4.20;99.90;;;;;;5030086;28;20050;-70
2022/02/22 05:14:04;;;;;;;0.90;0.60;;;4.10;99.90;;;;;;5030024;28;20601;-70
2022/02/22 05:17:08;;;;;;;0.90;0.70;;;4.10;99.90;;;;;;5030312;28;20303;-70
2022/02/22 05:20:12;;;;;;;1.02;0.60;;;4.00;99.90;;;;;;5029318;28;20052;-70
2022/02/22 05:23:16;;;;;;;1.00;0.60;;;4.10;99.90;;;;;;5030262;28;20046;-71
2022/02/22 05:26:20;;;;;;;2.47;0.60;;;4.10;99.90;;;;;;5029950;28;20037;-70
2022/02/22 05:29:24;;;;;;;2.20;1.05;;;4.10;99.90;;;;;;5029426;28;20061;-70
2022/02/22 05:32:29;;;;;;;2.45;0.80;;;4.20;99.90;;;;;;5029229;28;20033;-70
2022/02/22 05:35:33;;;;;;;0.80;0.70;;;4.20;99.90;;;;;;5030166;28;20053;-70
2022/02/22 05:38:39;;;;;;;1.73;0.70;;;4.30;99.90;;;;;;5029895;28;20049;-71
2022/02/22 05:41:43;;;;;;;1.50;1.00;;;4.30;99.90;;;;;;5030198;28;20048;-70
2022/02/22 05:44:47;;;;;;;1.30;0.80;;;4.20;99.90;;;;;;5028625;28;20423;-70
2022/02/22 05:47:51;;;;;;;1.10;0.80;;;4.10;99.90;;;;;;5030200;28;20045;-70
2022/02/22 05:50:56;;;;;;;1.30;0.70;;;4.10;99.90;;;;;;5029129;28;20034;-70
2022/02/22 05:54:00;;;;;;;1.95;0.68;;;4.00;99.90;;;;;;5029990;28;20044;-70
2022/02/22 05:57:04;;;;;;;0.80;0.60;;;4.00;99.90;;;;;;5029039;28;20390;-70
2022/02/22 06:00:09;;;;;;;1.27;0.82;;;4.00;99.90;;;;;;5028722;28;20038;-71
2022/02/22 06:03:13;;;;;;;1.73;0.70;;;3.90;99.90;;;;;;5030196;28;20042;-70
2022/02/22 06:06:17;;;;;;;0.60;0.60;;;4.00;99.90;;;;;;5029660;28;20388;-70
2022/02/22 06:09:21;;;;;;;0.65;0.55;;;4.00;99.90;;;;;;5029474;28;20049;-70
2022/02/22 06:12:25;;;;;;;1.33;0.60;;;4.10;99.90;;;;;;5033879;28;20045;-70
2022/02/22 06:15:29;;;;;;;1.92;0.70;;;4.20;99.90;;;;;;5033434;28;20029;-70
2022/02/22 06:18:33;;;;;;;0.75;0.50;;;4.30;99.90;;;;;;5033065;28;20045;-70
2022/02/22 06:21:37;;;;;;;0.88;0.43;;;4.40;99.90;;;;;;5033197;28;20034;-70
2022/02/22 06:24:41;;;;;;;1.13;0.70;;;4.40;99.90;;;;;;5033303;28;20034;-70
2022/02/22 06:27:48;;;;;;;0.82;0.50;;;4.50;99.90;;;;;;5033585;28;20045;-70
2022/02/22 06:30:52;;;;;;;0.85;0.52;;;4.50;99.90;;;;;;5033016;28;20041;-70
2022/02/22 06:33:57;;;;;;;0.82;0.40;;;4.60;99.90;;;;;;5033453;28;20044;-70
2022/02/22 06:37:01;;;;;;;0.93;0.52;;;4.80;99.90;;;;;;5033072;28;20056;-70
2022/02/22 06:40:06;;;;;;;2.28;0.57;;;4.90;99.90;;;;;;5032331;28;20044;-70
2022/02/22 06:43:10;;;;;;;2.78;0.55;;;5.60;99.90;;;;;;5033308;28;20061;-71
2022/02/22 06:46:15;;;;;;;0.90;0.55;;;8.80;99.90;;;;;;5032938;28;20037;-70
2022/02/22 06:49:19;;;;;;;0.75;0.47;;;11.80;99.90;;;;;;5032755;28;20052;-70
2022/02/22 06:52:23;;;;;;;1.50;0.52;;;13.90;96.10;;;;;;5032857;28;20507;-71
2022/02/22 06:55:27;;;;;;;0.82;0.40;;;15.70;93.10;;;;;;5031998;28;20041;-71
2022/02/22 06:58:31;;;;;;;1.60;0.63;;;17.00;90.00;;;;;;5028927;28;20049;-70
2022/02/22 07:01:35;;;;;;;1.02;0.60;;;17.80;86.40;;;;;;5023675;28;20033;-70
2022/02/22 07:04:39;;;;;;;0.93;0.68;;;18.30;83.90;;;;;;5027585;28;20504;-70
2022/02/22 07:07:43;;;;;;;1.15;0.50;;;19.20;82.00;;;;;;5029183;28;20396;-70
2022/02/22 07:10:47;;;;;;;1.95;0.60;;;19.50;77.90;;;;;;5032506;28;20503;-71
2022/02/22 07:13:51;;;;;;;0.70;0.50;;;19.80;77.20;;;;;;5029738;28;20056;-71
2022/02/22 07:16:56;;;;;;;1.55;0.50;;;20.20;75.40;;;;;;5028326;28;20503;-71
2022/02/22 07:20:00;;;;;;;0.63;0.30;;;20.90;72.80;;;;;;5029101;28;20048;-70
2022/02/22 07:23:05;;;;;;;0.93;0.50;;;21.00;71.90;;;;;;5030824;28;20372;-70
2022/02/22 07:26:09;;;;;;;0.85;0.30;;;21.20;70.60;;;;;;5022501;28;20041;-70
2022/02/22 07:29:13;;;;;;;2.38;0.32;;;21.30;69.30;;;;;;5023146;28;20044;-70
2022/02/22 07:32:17;;;;;;;0.68;0.47;;;21.70;69.10;;;;;;5030187;28;20048;-68
2022/02/22 07:35:22;;;;;;;1.13;0.40;;;22.40;67.10;;;;;;5022059;28;20048;-71
2022/02/22 07:38:26;;;;;;;2.38;0.40;;;22.10;66.40;;;;;;5029672;28;20508;-69
2022/02/22 07:41:30;;;;;;;1.35;0.25;;;21.10;66.40;;;;;;5026768;28;20048;-68
2022/02/22 07:44:34;;;;;;;1.50;0.70;;;21.90;66.60;;;;;;5030984;28;20048;-69
2022/02/22 07:47:38;;;;;;;0.90;0.40;;;22.60;65.60;;;;;;5029745;28;20049;-69
2022/02/22 07:50:42;;;;;;;1.10;0.55;;;23.10;64.20;;;;;;5028611;28;20052;-69
2022/02/22 07:53:47;;;;;;;0.47;0.30;;;22.80;62.00;;;;;;5026954;28;20048;-68
2022/02/22 07:56:51;;;;;;;1.38;0.60;;;23.10;62.50;;;;;;5025217;28;20104;-68
2022/02/22 07:59:55;;;;;;;4.10;0.50;;;23.30;58.90;;;;;;5027524;28;20048;-68
2022/02/22 08:02:59;;;;;;;0.68;0.40;;;23.60;57.10;;;;;;5029741;28;20393;-70
2022/02/22 08:06:03;;;;;;;5.43;2.63;;;23.80;55.90;;;;;;5027142;28;20499;-68
2022/02/22 08:09:07;;;;;;;3.28;1.65;;;24.10;55.40;;;;;;5031309;28;20052;-68
2022/02/22 08:12:11;;;;;;;1.48;0.70;;;24.40;53.60;;;;;;5030918;28;20054;-68
2022/02/22 08:15:15;;;;;;;2.38;0.22;;;24.60;53.10;;;;;;5022676;28;20044;-67
2022/02/22 08:18:19;;;;;;;1.55;0.30;;;23.20;51.00;;;;;;5025753;28;20052;-70
2022/02/22 08:21:23;;;;;;;0.30;0.13;;;23.10;52.10;;;;;;5027902;28;20040;-68
2022/02/22 08:24:27;;;;;;;0.17;0.10;;;23.20;51.10;;;;;;5019789;28;20045;-69
2022/02/22 08:27:31;;;;;;;0.82;0.28;;;23.50;51.10;;;;;;5024929;28;20052;-69
2022/02/22 08:30:36;;;;;;;0.50;0.20;;;23.50;50.20;;;;;;5026661;28;20040;-68
2022/02/22 08:33:42;;;;;;;2.28;0.50;;;23.70;50.00;;;;;;5027376;28;20049;-69
2022/02/22 08:36:46;;;;;;;0.85;0.40;;;24.50;49.70;;;;;;5027106;28;20053;-69
2022/02/22 08:39:50;;;;;;;0.43;0.15;;;25.70;50.00;;;;;;5027262;28;20052;-69
2022/02/22 08:42:56;;;;;;;0.32;0.20;;;25.30;47.60;;;;;;5029486;28;20052;-70
2022/02/22 08:46:01;;;;;;;2.15;0.28;;;25.70;48.80;;;;;;5030190;28;20376;-70
2022/02/22 08:49:06;;;;;;;1.25;0.30;;;27.80;49.40;;;;;;5020956;28;20591;-69
2022/02/22 08:52:11;;;;;;;0.65;0.30;;;28.50;47.30;;;;;;5021505;28;20051;-70
2022/02/22 08:55:16;;;;;;;0.82;0.38;;;29.30;47.60;;;;;;5023702;28;20032;-70
2022/02/22 08:58:20;;;;;;;3.22;0.35;;;28.70;46.40;;;;;;5029961;28;20044;-68
2022/02/22 09:01:24;;;;;;;1.65;0.20;;;28.60;46.40;;;;;;5022769;28;20033;-69
2022/02/22 09:04:28;;;;;;;0.43;0.40;;;29.20;47.20;;;;;;5027101;28;20084;-69
2022/02/22 09:07:32;;;;;;;2.13;0.88;;;29.70;46.80;;;;;;5023976;28;20044;-70
2022/02/22 09:10:36;;;;;;;0.95;0.52;;;30.40;47.20;;;;;;5028813;28;20428;-70
2022/02/22 09:13:40;;;;;;;2.40;0.57;;;31.60;45.10;;;;;;5025554;28;20057;-69
2022/02/22 09:16:46;;;;;;;0.50;0.30;;;31.30;45.30;;;;;;5023564;28;20052;-70
2022/02/22 09:19:53;;;;;;;0.55;0.30;;;30.50;43.50;;;;;;5021706;28;20041;-70
2022/02/22 09:22:57;;;;;;;0.88;0.30;;;30.80;43.70;;;;;;5023620;28;20044;-69
2022/02/22 09:26:01;;;;;;;1.00;0.32;;;30.50;44.40;;;;;;5027173;28;20040;-70
2022/02/22 09:29:05;;;;;;;0.93;0.50;;;32.10;44.70;;;;;;5028760;28;20045;-70
2022/02/22 09:32:09;;;;;;;0.90;0.60;;;30.60;41.90;;;;;;5029028;28;20040;-69
2022/02/22 09:35:16;;;;;;;1.30;0.68;;;30.10;43.20;;;;;;5022121;28;20048;-70
2022/02/22 09:38:20;;;;;;;1.65;0.45;;;31.50;44.40;;;;;;5019050;28;20187;-71
2022/02/22 09:41:24;;;;;;;2.92;0.57;;;32.00;42.20;;;;;;5029007;28;20656;-70
2022/02/22 09:44:29;;;;;;;0.57;0.47;;;31.30;41.70;;;;;;5019773;28;20044;-71
2022/02/22 09:47:34;;;;;;;2.45;0.28;;;31.50;41.70;;;;;;5019277;28;20040;-68
2022/02/22 09:50:38;;;;;;;1.05;0.22;;;31.50;41.50;;;;;;5024423;28;20041;-70
2022/02/22 09:53:42;;;;;;;0.30;0.30;;;32.10;41.80;;;;;;5024818;28;20052;-68
2022/02/22 09:56:46;;;;;;;0.40;0.30;;;32.30;41.20;;;;;;5023525;28;20076;-68
2022/02/22 09:59:51;;;;;;;0.28;0.20;;;31.50;40.30;;;;;;5024448;28;20385;-69
2022/02/22 10:02:54;;;;;;;1.02;0.30;;;32.10;41.50;;;;;;5026727;28;20037;-69
2022/02/22 10:06:01;;;;;;;0.73;0.32;;;31.50;41.10;;;;;;5025463;28;20040;-69
2022/02/22 10:09:09;;;;;;;1.77;0.20;;;31.40;41.70;;;;;;5025932;28;20498;-69
2022/02/22 10:12:14;;;;;;;0.40;0.22;;;31.00;41.00;;;;;;5026506;28;20075;-69
2022/02/22 10:15:18;;;;;;;0.40;0.28;;;31.70;41.50;;;;;;5025847;28;20553;-70
2022/02/22 10:18:22;;;;;;;0.30;0.20;;;33.10;41.40;;;;;;5023986;28;20048;-69
2022/02/22 10:21:26;;;;;;;0.85;0.40;;;33.20;40.90;;;;;;5025970;28;20037;-69
2022/02/22 10:24:31;;;;;;;0.47;0.30;;;33.70;40.90;;;;;;5023009;28;20439;-69
2022/02/22 10:27:44;;;;;;;1.13;0.35;;;33.50;40.10;;;;;;5023755;28;20044;-68
2022/02/22 10:30:50;;;;;;;0.80;0.50;;;35.10;39.40;;;;;;5027459;28;20503;-70
2022/02/22 10:33:54;;;;;;;0.68;0.40;;;34.40;39.90;;;;;;5026651;28;20503;-69
2022/02/22 10:36:59;;;;;;;1.10;0.40;;;33.40;39.30;;;;;;5025684;28;20056;-71
2022/02/22 10:40:04;;;;;;;0.60;0.20;;;34.00;39.50;;;;;;5021633;28;20056;-69
2022/02/22 10:43:19;;;;;;;0.35;0.25;;;35.30;40.30;;;;;;5024477;28;20415;-70
2022/02/22 10:46:25;;;;;;;0.95;0.30;;;35.30;39.00;;;;;;5027751;28;20052;-69
2022/02/22 10:49:36;;;;;;;0.43;0.20;;;35.20;39.30;;;;;;5025383;28;20049;-69
2022/02/22 10:52:40;;;;;;;0.47;0.25;;;36.00;39.70;;;;;;5022119;28;20057;-70
2022/02/22 10:55:46;;;;;;;0.55;0.10;;;35.60;38.60;;;;;;5024425;28;20049;-70
2022/02/22 10:58:50;;;;;;;1.50;0.30;;;34.40;39.10;;;;;;5027923;28;20048;-69
2022/02/22 11:02:02;;;;;;;0.22;0.13;;;34.20;38.90;;;;;;5030616;28;20056;-70
2022/02/22 11:05:07;;;;;;;4.00;0.30;;;34.50;39.70;;;;;;5029040;28;20041;-70
2022/02/22 11:08:11;;;;;;;0.40;0.32;;;35.20;38.80;;;;;;5029672;28;20396;-69
2022/02/22 11:11:36;;;;;;;1.23;0.20;;;36.50;39.40;;;;;;5029365;28;20408;-71
2022/02/22 11:14:40;;;;;;;0.30;0.20;;;36.50;37.80;;;;;;5028580;28;20052;-69
2022/02/22 11:17:47;;;;;;;0.20;0.17;;;37.00;38.00;;;;;;5030188;28;20484;-69
2022/02/22 11:20:52;;;;;;;1.23;0.15;;;37.40;37.60;;;;;;5030132;28;20048;-69
2022/02/22 11:24:06;;;;;;;0.68;0.25;;;36.60;36.90;;;;;;5028952;28;20052;-69
2022/02/22 11:27:10;;;;;;;0.13;0.10;;;35.30;35.70;;;;;;5030665;28;20056;-69
2022/02/22 11:30:27;;;;;;;0.80;0.15;;;34.70;35.60;;;;;;5029567;28;20040;-68
2022/02/22 11:33:39;;;;;;;0.35;0.20;;;34.80;35.60;;;;;;5025923;28;20036;-70
2022/02/22 11:36:44;;;;;;;3.20;0.30;;;33.90;35.60;;;;;;5026664;28;20041;-67
2022/02/22 11:39:52;;;;;;;2.63;0.20;;;32.50;34.80;;;;;;5027202;28;20045;-67
2022/02/22 11:43:14;;;;;;;0.30;0.20;;;31.10;35.00;;;;;;5029176;28;20052;-66
2022/02/22 11:46:19;;;;;;;0.85;0.35;;;29.70;34.30;;;;;;5027657;28;20048;-67
2022/02/22 11:49:28;;;;;;;0.20;0.20;;;28.40;35.50;;;;;;5024504;28;20040;-68
2022/02/22 11:52:41;;;;;;;0.50;0.20;;;27.80;36.00;;;;;;5026287;28;20472;-68
2022/02/22 11:55:49;;;;;;;0.38;0.20;;;27.80;36.10;;;;;;5028513;28;20045;-68
2022/02/22 11:58:53;;;;;;;0.70;0.30;;;28.50;36.40;;;;;;5027088;28;20044;-68
2022/02/22 12:02:02;;;;;;;3.63;0.30;;;30.10;36.90;;;;;;5027853;28;20040;-68
2022/02/22 12:05:49;;;;;;;0.03;0.03;;;29.70;36.30;;;;;;5027274;28;20044;-70
2022/02/22 12:08:55;;;;;;;1.75;0.90;;;29.80;35.60;;;;;;5027920;28;20048;-69
2022/02/22 12:12:03;;;;;;;2.88;0.73;;;31.10;36.20;;;;;;5027501;28;20392;-69
2022/02/22 12:15:08;;;;;;;1.35;0.55;;;31.40;36.10;;;;;;5027316;28;20048;-69
2022/02/22 12:18:16;;;;;;;1.58;0.60;;;31.20;35.30;;;;;;5022286;28;20037;-69
2022/02/22 12:21:26;;;;;;;0.47;0.40;;;31.10;35.90;;;;;;5028342;28;20056;-68
2022/02/22 12:24:30;;;;;;;0.85;0.30;;;31.10;35.50;;;;;;5027464;28;20158;-69
2022/02/22 12:27:36;;;;;;;0.40;0.30;;;31.00;35.60;;;;;;5025714;28;20073;-68
2022/02/22 12:30:42;;;;;;;0.70;0.30;;;31.40;36.40;;;;;;5023553;28;20096;-67
2022/02/22 12:33:46;;;;;;;0.40;0.30;;;32.20;35.20;;;;;;5022367;28;20044;-67
2022/02/22 12:36:56;;;;;;;0.55;0.40;;;30.30;35.00;;;;;;5027254;28;20048;-70
2022/02/22 12:40:11;;;;;;;0.30;0.20;;;30.40;35.40;;;;;;5027273;28;20048;-68
2022/02/22 12:43:17;;;;;;;0.25;0.17;;;31.10;35.80;;;;;;5023765;28;20499;-69
2022/02/22 12:46:22;;;;;;;0.98;0.20;;;31.90;35.70;;;;;;5023253;28;20045;-68
2022/02/22 12:49:27;;;;;;;0.40;0.30;;;30.10;34.50;;;;;;5018534;28;20672;-67
2022/02/22 12:52:32;;;;;;;0.68;0.20;;;29.70;34.60;;;;;;5025808;28;20042;-67
2022/02/22 12:55:46;;;;;;;0.20;0.20;;;28.70;35.40;;;;;;5020384;28;20052;-68
2022/02/22 12:58:50;;;;;;;3.00;0.50;;;29.20;35.80;;;;;;5029435;28;20412;-69
2022/02/22 13:01:59;;;;;;;1.02;0.25;;;29.20;36.80;;;;;;5023601;28;20048;-68
2022/02/22 13:05:04;;;;;;;0.57;0.20;;;30.10;36.10;;;;;;5029556;28;20056;-68
2022/02/22 13:08:10;;;;;;;0.63;0.43;;;29.80;35.10;;;;;;5029074;28;20048;-69
2022/02/22 13:11:14;;;;;;;0.60;0.35;;;29.20;36.30;;;;;;5030506;28;20064;-68
2022/02/22 13:14:19;;;;;;;0.50;0.20;;;29.60;35.50;;;;;;5029744;28;20511;-69
2022/02/22 13:17:30;;;;;;;1.05;0.30;;;30.10;35.50;;;;;;5018716;28;20044;-69
2022/02/22 13:20:42;;;;;;;0.43;0.30;;;29.90;35.50;;;;;;5029017;28;20041;-67
2022/02/22 13:23:47;;;;;;;0.20;0.20;;;29.10;35.70;;;;;;5029388;28;20071;-68
2022/02/22 13:26:55;;;;;;;0.73;0.30;;;28.60;35.40;;;;;;5024670;28;20041;-67
2022/02/22 13:30:10;;;;;;;0.30;0.20;;;29.10;35.70;;;;;;5028996;28;20495;-69
2022/02/22 13:33:17;;;;;;;0.30;0.20;;;29.80;36.40;;;;;;5017346;28;20052;-68
2022/02/22 13:36:22;;;;;;;0.85;0.20;;;28.70;35.10;;;;;;5020181;28;20049;-66
2022/02/22 13:39:29;;;;;;;0.28;0.28;;;27.70;35.40;;;;;;5021097;28;20109;-68
2022/02/22 13:42:35;;;;;;;1.98;0.40;;;27.50;35.60;;;;;;5020395;28;20041;-68
2022/02/22 13:45:39;;;;;;;3.92;0.40;;;29.30;36.50;;;;;;5019654;28;20049;-67
2022/02/22 13:48:43;;;;;;;0.28;0.22;;;29.00;36.00;;;;;;5023373;28;20044;-68
2022/02/22 13:51:51;;;;;;;0.30;0.20;;;29.00;36.40;;;;;;5024750;28;20044;-69
2022/02/22 13:54:55;;;;;;;0.77;0.40;;;29.80;36.70;;;;;;5019508;28;20052;-68
2022/02/22 13:58:05;;;;;;;0.95;0.30;;;30.40;37.10;;;;;;5029312;28;20500;-69
2022/02/22 14:01:11;;;;;;;0.93;0.52;;;31.20;36.00;;;;;;5024595;28;20072;-70
2022/02/22 14:04:16;;;;;;;1.20;0.63;;;31.60;35.60;;;;;;5028805;28;20053;-68
2022/02/22 14:07:20;;;;;;;0.77;0.38;;;31.30;36.90;;;;;;5028618;28;20036;-68
2022/02/22 14:10:26;;;;;;;1.27;0.45;;;29.70;35.30;;;;;;5026179;28;20052;-68
2022/02/22 14:13:35;;;;;;;1.38;0.50;;;28.80;35.60;;;;;;5028748;28;20061;-69
2022/02/22 14:16:40;;;;;;;0.80;0.70;;;28.00;35.00;;;;;;5028321;28;20491;-68
2022/02/22 14:19:44;;;;;;;1.02;0.45;;;27.80;35.50;;;;;;5023253;28;20488;-68
2022/02/22 14:22:49;;;;;;;2.35;0.40;;;26.80;35.50;;;;;;5028372;28;20388;-68
2022/02/22 14:25:53;;;;;;;2.63;0.50;;;26.50;36.90;;;;;;5024034;28;20041;-68
2022/02/22 14:28:58;;;;;;;0.88;0.50;;;26.20;36.80;;;;;;5028226;28;20048;-68
2022/02/22 14:32:02;;;;;;;1.38;0.50;;;26.50;37.60;;;;;;5031833;28;20052;-68
2022/02/22 14:35:07;;;;;;;0.70;0.50;;;26.50;37.30;;;;;;5033666;28;20404;-68
2022/02/22 14:38:11;;;;;;;0.50;0.40;;;26.20;36.60;;;;;;5024130;28;20393;-68
2022/02/22 14:41:14;;;;;;;0.68;0.50;;;25.40;37.00;;;;;;5032651;28;20056;-70
2022/02/22 14:44:18;;;;;;;0.73;0.65;;;25.50;37.20;;;;;;5026014;28;20056;-69
2022/02/22 14:47:23;;;;;;;4.50;0.70;;;25.50;37.70;;;;;;5031531;28;20515;-67
2022/02/22 14:50:27;;;;;;;1.23;0.57;;;25.70;37.70;;;;;;5013953;28;20045;-68
2022/02/22 14:53:31;;;;;;;1.52;0.70;;;26.20;37.70;;;;;;5032694;28;20036;-67
2022/02/22 14:56:35;;;;;;;1.05;0.70;;;25.50;37.80;;;;;;5032212;28;20052;-71
2022/02/22 14:59:40;;;;;;;0.75;0.70;;;25.40;37.80;;;;;;5031353;28;20113;-70
2022/02/22 15:02:44;;;;;;;0.90;0.68;;;24.60;38.30;;;;;;5032497;28;20044;-70
2022/02/22 15:05:48;;;;;;;0.90;0.75;;;24.90;38.40;;;;;;5032374;28;20045;-71
2022/02/22 15:08:52;;;;;;;1.80;0.88;;;25.20;38.20;;;;;;5013214;28;20062;-70
2022/02/22 15:11:56;;;;;;;2.83;2.33;;;25.20;38.30;;;;;;5029496;28;20041;-70
2022/02/22 15:15:00;;;;;;;4.03;3.72;;;25.40;38.50;;;;;;5032537;28;20064;-68
2022/02/22 15:18:05;;;;;;;2.33;2.10;;;25.70;38.40;;;;;;5031563;28;20041;-70
2022/02/22 15:21:11;;;;;;;3.17;1.70;;;25.00;38.20;;;;;;5032625;28;20099;-69
2022/02/22 15:24:15;;;;;;;3.13;2.65;;;24.20;39.30;;;;;;5014163;28;20037;-70
2022/02/22 15:27:20;;;;;;;10.88;7.70;;;23.40;40.00;;;;;;5027226;28;20479;-71
2022/02/22 15:30:24;;;;;;;17.17;10.63;;;23.40;40.00;;;;;;5031403;28;20048;-70
2022/02/22 15:33:29;;;;;;;10.13;7.03;;;23.40;40.10;;;;;;5028206;28;20036;-70
2022/02/22 15:36:33;;;;;;;4.28;2.92;;;23.30;40.00;;;;;;5027323;28;20045;-70
2022/02/22 15:39:38;;;;;;;2.75;2.20;;;22.50;40.20;;;;;;5029845;28;20040;-69
2022/02/22 15:42:42;;;;;;;3.38;2.28;;;22.40;40.70;;;;;;5031196;28;20041;-70
2022/02/22 15:45:46;;;;;;;1.77;1.65;;;22.30;41.00;;;;;;5023870;28;20049;-67
2022/02/22 15:48:50;;;;;;;1.95;1.40;;;22.10;41.90;;;;;;5028915;28;20044;-70
2022/02/22 15:51:54;;;;;;;2.25;1.38;;;22.00;40.80;;;;;;5024909;28;20060;-68
2022/02/22 15:54:58;;;;;;;4.00;1.60;;;21.60;41.90;;;;;;5031831;28;20380;-68
2022/02/22 15:58:03;;;;;;;5.07;1.83;;;21.10;42.60;;;;;;5031763;28;20052;-71
2022/02/22 16:01:07;;;;;;;5.35;2.78;;;20.60;42.70;;;;;;5027134;28;20044;-70
2022/02/22 16:04:11;;;;;;;2.65;1.70;;;20.30;43.50;;;;;;5026828;28;20044;-69
2022/02/22 16:07:16;;;;;;;5.10;2.10;;;19.70;42.90;;;;;;5031424;28;20041;-69